sensor_id;sensor_type;location;lat;lon;timestamp;P1;durP1;ratioP1;P2;durP2;ratioP2
26036;SDS011;13810;48.376;10.944;2022-09-23T00:00:21;9.98;;;6.82;;
26036;SDS011;13810;48.376;10.944;2022-09-23T00:00:59;13.38;;;7.10;;
26036;SDS011;13810;48.376;10.944;2022-09-23T00:01:33;11.48;;;6.97;;
26036;SDS011;13810;48.376;10.944;2022-09-23T00:02:04;11.70;;;6.50;;
26036;SDS011;13810;48.376;10.944;2022-09-23T00:02:35;12.23;;;7.30;;
26036;SDS011;13810;48.376;10.944;2022-09-23T00:03:06;13.93;;;7.93;;
26036;SDS011;13810;48.376;10.944;2022-09-23T00:03:38;11.95;;;6.70;;
26036;SDS011;13810;48.376;10.944;2022-09-23T00:04:16;12.82;;;6.85;;
26036;SDS011;13810;48.376;10.944;2022-09-23T00:04:46;9.55;;;6.47;;
26036;SDS011;13810;48.376;10.944;2022-09-23T00:05:17;11.95;;;7.03;;
26036;SDS011;13810;48.376;10.944;2022-09-23T00:05:55;9.32;;;6.38;;
26036;SDS011;13810;48.376;10.944;2022-09-23T00:06:27;9.00;;;6.35;;
26036;SDS011;13810;48.376;10.944;2022-09-23T00:06:58;11.13;;;7.03;;
26036;SDS011;13810;48.376;10.944;2022-09-23T00:07:29;11.00;;;7.18;;
26036;SDS011;13810;48.376;10.944;2022-09-23T00:07:59;10.32;;;6.75;;
26036;SDS011;13810;48.376;10.944;2022-09-23T00:08:30;10.77;;;6.55;;
26036;SDS011;13810;48.376;10.944;2022-09-23T00:09:01;15.80;;;6.70;;
26036;SDS011;13810;48.376;10.944;2022-09-23T00:09:32;13.35;;;7.80;;
26036;SDS011;13810;48.376;10.944;2022-09-23T00:10:03;8.68;;;6.32;;
26036;SDS011;13810;48.376;10.944;2022-09-23T00:10:35;13.35;;;6.78;;
26036;SDS011;13810;48.376;10.944;2022-09-23T00:11:09;10.73;;;7.05;;
26036;SDS011;13810;48.376;10.944;2022-09-23T00:11:44;14.50;;;8.32;;
26036;SDS011;13810;48.376;10.944;2022-09-23T00:12:15;12.80;;;7.57;;
26036;SDS011;13810;48.376;10.944;2022-09-23T00:12:47;13.73;;;7.45;;
26036;SDS011;13810;48.376;10.944;2022-09-23T00:13:17;10.60;;;7.15;;
26036;SDS011;13810;48.376;10.944;2022-09-23T00:13:49;9.73;;;7.07;;
26036;SDS011;13810;48.376;10.944;2022-09-23T00:14:22;8.60;;;6.53;;
26036;SDS011;13810;48.376;10.944;2022-09-23T00:14:53;11.98;;;6.95;;
26036;SDS011;13810;48.376;10.944;2022-09-23T00:15:24;13.18;;;7.28;;
26036;SDS011;13810;48.376;10.944;2022-09-23T00:15:56;12.23;;;7.78;;
26036;SDS011;13810;48.376;10.944;2022-09-23T00:16:28;11.30;;;7.00;;
26036;SDS011;13810;48.376;10.944;2022-09-23T00:17:02;11.40;;;7.07;;
26036;SDS011;13810;48.376;10.944;2022-09-23T00:17:32;14.05;;;7.22;;
26036;SDS011;13810;48.376;10.944;2022-09-23T00:18:03;11.13;;;6.20;;
26036;SDS011;13810;48.376;10.944;2022-09-23T00:18:34;16.33;;;7.45;;
26036;SDS011;13810;48.376;10.944;2022-09-23T00:19:04;14.90;;;7.55;;
26036;SDS011;13810;48.376;10.944;2022-09-23T00:19:37;11.88;;;6.95;;
26036;SDS011;13810;48.376;10.944;2022-09-23T00:20:09;12.65;;;7.65;;
26036;SDS011;13810;48.376;10.944;2022-09-23T00:20:40;13.02;;;7.20;;
26036;SDS011;13810;48.376;10.944;2022-09-23T00:21:12;9.50;;;6.85;;
26036;SDS011;13810;48.376;10.944;2022-09-23T00:21:43;10.30;;;6.78;;
26036;SDS011;13810;48.376;10.944;2022-09-23T00:22:14;9.35;;;6.90;;
26036;SDS011;13810;48.376;10.944;2022-09-23T00:22:45;11.95;;;7.40;;
26036;SDS011;13810;48.376;10.944;2022-09-23T00:23:16;11.05;;;7.43;;
26036;SDS011;13810;48.376;10.944;2022-09-23T00:23:47;9.52;;;5.85;;
26036;SDS011;13810;48.376;10.944;2022-09-23T00:24:18;11.15;;;6.93;;
26036;SDS011;13810;48.376;10.944;2022-09-23T00:24:48;10.07;;;6.55;;
26036;SDS011;13810;48.376;10.944;2022-09-23T00:25:19;11.18;;;6.47;;
26036;SDS011;13810;48.376;10.944;2022-09-23T00:25:56;13.50;;;6.95;;
26036;SDS011;13810;48.376;10.944;2022-09-23T00:26:28;11.80;;;6.88;;
26036;SDS011;13810;48.376;10.944;2022-09-23T00:26:59;11.43;;;7.03;;
26036;SDS011;13810;48.376;10.944;2022-09-23T00:27:30;11.38;;;6.57;;
26036;SDS011;13810;48.376;10.944;2022-09-23T00:28:02;10.00;;;6.15;;
26036;SDS011;13810;48.376;10.944;2022-09-23T00:28:33;11.40;;;6.65;;
26036;SDS011;13810;48.376;10.944;2022-09-23T00:29:04;10.98;;;6.78;;
26036;SDS011;13810;48.376;10.944;2022-09-23T00:29:35;11.57;;;6.38;;
26036;SDS011;13810;48.376;10.944;2022-09-23T00:30:06;10.05;;;6.80;;
26036;SDS011;13810;48.376;10.944;2022-09-23T00:30:39;13.00;;;6.93;;
26036;SDS011;13810;48.376;10.944;2022-09-23T00:31:12;10.00;;;6.38;;
26036;SDS011;13810;48.376;10.944;2022-09-23T00:31:44;9.32;;;6.68;;
26036;SDS011;13810;48.376;10.944;2022-09-23T00:32:15;8.68;;;5.95;;
26036;SDS011;13810;48.376;10.944;2022-09-23T00:32:45;10.63;;;6.28;;
26036;SDS011;13810;48.376;10.944;2022-09-23T00:33:16;8.88;;;6.22;;
26036;SDS011;13810;48.376;10.944;2022-09-23T00:33:51;7.95;;;6.13;;
26036;SDS011;13810;48.376;10.944;2022-09-23T00:34:25;10.55;;;5.80;;
26036;SDS011;13810;48.376;10.944;2022-09-23T00:34:56;9.18;;;6.45;;
26036;SDS011;13810;48.376;10.944;2022-09-23T00:35:26;10.27;;;6.45;;
26036;SDS011;13810;48.376;10.944;2022-09-23T00:36:01;10.18;;;6.47;;
26036;SDS011;13810;48.376;10.944;2022-09-23T00:36:35;8.52;;;6.07;;
26036;SDS011;13810;48.376;10.944;2022-09-23T00:37:06;9.65;;;6.53;;
26036;SDS011;13810;48.376;10.944;2022-09-23T00:37:36;8.73;;;5.70;;
26036;SDS011;13810;48.376;10.944;2022-09-23T00:38:07;8.70;;;6.03;;
26036;SDS011;13810;48.376;10.944;2022-09-23T00:38:37;8.75;;;5.93;;
26036;SDS011;13810;48.376;10.944;2022-09-23T00:39:08;10.13;;;6.40;;
26036;SDS011;13810;48.376;10.944;2022-09-23T00:39:39;11.43;;;6.20;;
26036;SDS011;13810;48.376;10.944;2022-09-23T00:40:10;8.07;;;5.90;;
26036;SDS011;13810;48.376;10.944;2022-09-23T00:40:45;8.32;;;5.55;;
26036;SDS011;13810;48.376;10.944;2022-09-23T00:41:16;9.05;;;5.85;;
26036;SDS011;13810;48.376;10.944;2022-09-23T00:41:47;9.75;;;6.15;;
26036;SDS011;13810;48.376;10.944;2022-09-23T00:42:18;10.02;;;6.15;;
26036;SDS011;13810;48.376;10.944;2022-09-23T00:42:50;7.75;;;5.97;;
26036;SDS011;13810;48.376;10.944;2022-09-23T00:45:11;12.00;;;6.15;;
26036;SDS011;13810;48.376;10.944;2022-09-23T00:45:44;10.40;;;7.15;;
26036;SDS011;13810;48.376;10.944;2022-09-23T00:46:19;10.40;;;6.70;;
26036;SDS011;13810;48.376;10.944;2022-09-23T00:46:55;8.38;;;6.30;;
26036;SDS011;13810;48.376;10.944;2022-09-23T00:48:14;12.57;;;6.63;;
26036;SDS011;13810;48.376;10.944;2022-09-23T00:48:49;12.38;;;7.40;;
26036;SDS011;13810;48.376;10.944;2022-09-23T00:49:25;12.25;;;7.40;;
26036;SDS011;13810;48.376;10.944;2022-09-23T00:50:50;9.10;;;6.80;;
26036;SDS011;13810;48.376;10.944;2022-09-23T00:51:23;11.45;;;6.45;;
26036;SDS011;13810;48.376;10.944;2022-09-23T00:52:02;7.50;;;6.13;;
26036;SDS011;13810;48.376;10.944;2022-09-23T00:52:39;8.52;;;5.57;;
26036;SDS011;13810;48.376;10.944;2022-09-23T00:53:12;10.40;;;6.60;;
26036;SDS011;13810;48.376;10.944;2022-09-23T00:53:48;10.23;;;7.05;;
26036;SDS011;13810;48.376;10.944;2022-09-23T00:54:21;13.38;;;7.25;;
26036;SDS011;13810;48.376;10.944;2022-09-23T00:54:54;14.20;;;7.47;;
26036;SDS011;13810;48.376;10.944;2022-09-23T00:55:40;10.32;;;7.03;;
26036;SDS011;13810;48.376;10.944;2022-09-23T00:56:18;11.98;;;6.38;;
26036;SDS011;13810;48.376;10.944;2022-09-23T00:56:50;11.70;;;6.57;;
26036;SDS011;13810;48.376;10.944;2022-09-23T00:57:22;11.27;;;6.72;;
26036;SDS011;13810;48.376;10.944;2022-09-23T00:57:55;12.60;;;6.70;;
26036;SDS011;13810;48.376;10.944;2022-09-23T00:58:29;10.07;;;6.82;;
26036;SDS011;13810;48.376;10.944;2022-09-23T00:59:02;15.93;;;7.68;;
26036;SDS011;13810;48.376;10.944;2022-09-23T00:59:35;9.50;;;6.53;;
26036;SDS011;13810;48.376;10.944;2022-09-23T01:00:07;13.55;;;7.47;;
26036;SDS011;13810;48.376;10.944;2022-09-23T01:00:38;9.73;;;6.38;;
26036;SDS011;13810;48.376;10.944;2022-09-23T01:01:09;10.27;;;6.40;;
26036;SDS011;13810;48.376;10.944;2022-09-23T01:01:41;13.73;;;7.55;;
26036;SDS011;13810;48.376;10.944;2022-09-23T01:02:13;9.55;;;7.05;;
26036;SDS011;13810;48.376;10.944;2022-09-23T01:02:45;10.65;;;6.85;;
26036;SDS011;13810;48.376;10.944;2022-09-23T01:03:16;15.30;;;7.38;;
26036;SDS011;13810;48.376;10.944;2022-09-23T01:03:48;14.57;;;7.57;;
26036;SDS011;13810;48.376;10.944;2022-09-23T01:04:22;12.88;;;7.25;;
26036;SDS011;13810;48.376;10.944;2022-09-23T01:04:55;10.00;;;6.50;;
26036;SDS011;13810;48.376;10.944;2022-09-23T01:05:27;16.63;;;6.97;;
26036;SDS011;13810;48.376;10.944;2022-09-23T01:05:57;14.55;;;7.15;;
26036;SDS011;13810;48.376;10.944;2022-09-23T01:06:29;12.38;;;7.13;;
26036;SDS011;13810;48.376;10.944;2022-09-23T01:06:59;12.38;;;6.70;;
26036;SDS011;13810;48.376;10.944;2022-09-23T01:07:30;12.13;;;7.75;;
26036;SDS011;13810;48.376;10.944;2022-09-23T01:08:01;10.98;;;7.05;;
26036;SDS011;13810;48.376;10.944;2022-09-23T01:08:33;12.43;;;7.97;;
26036;SDS011;13810;48.376;10.944;2022-09-23T01:09:04;14.00;;;6.90;;
26036;SDS011;13810;48.376;10.944;2022-09-23T01:09:34;9.65;;;6.75;;
26036;SDS011;13810;48.376;10.944;2022-09-23T01:10:06;10.13;;;6.38;;
26036;SDS011;13810;48.376;10.944;2022-09-23T01:10:43;14.48;;;7.15;;
26036;SDS011;13810;48.376;10.944;2022-09-23T01:11:24;21.10;;;7.22;;
26036;SDS011;13810;48.376;10.944;2022-09-23T01:15:55;11.45;;;6.38;;
26036;SDS011;13810;48.376;10.944;2022-09-23T01:17:39;11.65;;;6.18;;
26036;SDS011;13810;48.376;10.944;2022-09-23T01:18:32;9.40;;;5.30;;
26036;SDS011;13810;48.376;10.944;2022-09-23T01:19:32;8.15;;;5.43;;
26036;SDS011;13810;48.376;10.944;2022-09-23T01:20:30;14.00;;;6.03;;
26036;SDS011;13810;48.376;10.944;2022-09-23T01:22:05;7.15;;;5.15;;
26036;SDS011;13810;48.376;10.944;2022-09-23T01:29:00;12.30;;;6.75;;
26036;SDS011;13810;48.376;10.944;2022-09-23T01:31:33;14.82;;;7.47;;
26036;SDS011;13810;48.376;10.944;2022-09-23T01:33:46;10.38;;;6.03;;
26036;SDS011;13810;48.376;10.944;2022-09-23T01:34:27;9.30;;;5.97;;
26036;SDS011;13810;48.376;10.944;2022-09-23T01:35:06;13.02;;;7.00;;
26036;SDS011;13810;48.376;10.944;2022-09-23T01:36:05;10.77;;;6.05;;
26036;SDS011;13810;48.376;10.944;2022-09-23T01:36:42;11.95;;;7.22;;
26036;SDS011;13810;48.376;10.944;2022-09-23T01:42:05;12.35;;;6.85;;
26036;SDS011;13810;48.376;10.944;2022-09-23T01:43:20;13.73;;;6.85;;
26036;SDS011;13810;48.376;10.944;2022-09-23T01:44:57;11.20;;;6.55;;
26036;SDS011;13810;48.376;10.944;2022-09-23T01:45:32;14.52;;;7.65;;
26036;SDS011;13810;48.376;10.944;2022-09-23T01:46:13;17.43;;;7.03;;
26036;SDS011;13810;48.376;10.944;2022-09-23T01:46:50;17.10;;;8.43;;
26036;SDS011;13810;48.376;10.944;2022-09-23T01:47:29;12.23;;;7.50;;
26036;SDS011;13810;48.376;10.944;2022-09-23T01:48:26;18.88;;;8.68;;
26036;SDS011;13810;48.376;10.944;2022-09-23T01:49:56;17.58;;;8.35;;
26036;SDS011;13810;48.376;10.944;2022-09-23T01:50:32;14.18;;;7.25;;
26036;SDS011;13810;48.376;10.944;2022-09-23T01:52:06;15.48;;;7.88;;
26036;SDS011;13810;48.376;10.944;2022-09-23T01:52:45;12.80;;;7.90;;
26036;SDS011;13810;48.376;10.944;2022-09-23T01:54:25;13.68;;;7.45;;
26036;SDS011;13810;48.376;10.944;2022-09-23T01:55:47;13.50;;;7.35;;
26036;SDS011;13810;48.376;10.944;2022-09-23T01:56:27;13.25;;;7.18;;
26036;SDS011;13810;48.376;10.944;2022-09-23T01:57:03;15.38;;;7.45;;
26036;SDS011;13810;48.376;10.944;2022-09-23T01:57:42;13.32;;;6.95;;
26036;SDS011;13810;48.376;10.944;2022-09-23T01:58:40;14.10;;;6.85;;
26036;SDS011;13810;48.376;10.944;2022-09-23T01:59:17;13.27;;;6.68;;
26036;SDS011;13810;48.376;10.944;2022-09-23T02:00:13;14.45;;;7.25;;
26036;SDS011;13810;48.376;10.944;2022-09-23T02:00:48;11.32;;;6.68;;
26036;SDS011;13810;48.376;10.944;2022-09-23T02:01:30;11.63;;;6.97;;
26036;SDS011;13810;48.376;10.944;2022-09-23T02:02:10;14.30;;;7.75;;
26036;SDS011;13810;48.376;10.944;2022-09-23T02:02:49;13.55;;;6.88;;
26036;SDS011;13810;48.376;10.944;2022-09-23T02:03:25;12.20;;;7.63;;
26036;SDS011;13810;48.376;10.944;2022-09-23T02:04:09;10.80;;;6.88;;
26036;SDS011;13810;48.376;10.944;2022-09-23T02:04:47;12.30;;;6.80;;
26036;SDS011;13810;48.376;10.944;2022-09-23T02:05:30;10.70;;;6.68;;
26036;SDS011;13810;48.376;10.944;2022-09-23T02:06:10;11.18;;;6.40;;
26036;SDS011;13810;48.376;10.944;2022-09-23T02:06:54;11.05;;;6.97;;
26036;SDS011;13810;48.376;10.944;2022-09-23T02:08:45;13.60;;;8.25;;
26036;SDS011;13810;48.376;10.944;2022-09-23T02:09:22;12.40;;;7.25;;
26036;SDS011;13810;48.376;10.944;2022-09-23T02:10:41;13.13;;;7.70;;
26036;SDS011;13810;48.376;10.944;2022-09-23T02:11:15;10.75;;;6.78;;
26036;SDS011;13810;48.376;10.944;2022-09-23T02:11:47;9.73;;;6.43;;
26036;SDS011;13810;48.376;10.944;2022-09-23T02:12:22;11.88;;;7.13;;
26036;SDS011;13810;48.376;10.944;2022-09-23T02:12:57;13.10;;;7.53;;
26036;SDS011;13810;48.376;10.944;2022-09-23T02:14:21;13.32;;;7.13;;
26036;SDS011;13810;48.376;10.944;2022-09-23T02:15:31;12.15;;;6.63;;
26036;SDS011;13810;48.376;10.944;2022-09-23T02:15:58;13.63;;;6.88;;
26036;SDS011;13810;48.376;10.944;2022-09-23T02:16:33;11.20;;;6.78;;
26036;SDS011;13810;48.376;10.944;2022-09-23T02:17:11;11.00;;;6.68;;
26036;SDS011;13810;48.376;10.944;2022-09-23T02:17:50;9.95;;;6.90;;
26036;SDS011;13810;48.376;10.944;2022-09-23T02:18:33;10.05;;;6.30;;
26036;SDS011;13810;48.376;10.944;2022-09-23T02:20:11;9.55;;;5.72;;
26036;SDS011;13810;48.376;10.944;2022-09-23T02:20:44;11.68;;;6.15;;
26036;SDS011;13810;48.376;10.944;2022-09-23T02:21:16;12.50;;;6.88;;
26036;SDS011;13810;48.376;10.944;2022-09-23T02:21:51;12.30;;;7.57;;
26036;SDS011;13810;48.376;10.944;2022-09-23T02:22:33;9.60;;;6.18;;
26036;SDS011;13810;48.376;10.944;2022-09-23T02:23:22;10.35;;;6.13;;
26036;SDS011;13810;48.376;10.944;2022-09-23T02:24:03;14.10;;;6.05;;
26036;SDS011;13810;48.376;10.944;2022-09-23T02:24:46;11.38;;;6.80;;
26036;SDS011;13810;48.376;10.944;2022-09-23T02:25:18;13.57;;;6.28;;
26036;SDS011;13810;48.376;10.944;2022-09-23T02:27:17;10.07;;;6.03;;
26036;SDS011;13810;48.376;10.944;2022-09-23T02:28:48;9.50;;;5.97;;
26036;SDS011;13810;48.376;10.944;2022-09-23T02:30:43;12.40;;;6.60;;
26036;SDS011;13810;48.376;10.944;2022-09-23T02:31:38;11.75;;;6.60;;
26036;SDS011;13810;48.376;10.944;2022-09-23T02:33:05;9.02;;;6.05;;
26036;SDS011;13810;48.376;10.944;2022-09-23T02:35:59;14.70;;;6.25;;
26036;SDS011;13810;48.376;10.944;2022-09-23T02:37:38;9.15;;;5.53;;
26036;SDS011;13810;48.376;10.944;2022-09-23T02:39:00;11.27;;;5.85;;
26036;SDS011;13810;48.376;10.944;2022-09-23T02:39:38;13.02;;;6.75;;
26036;SDS011;13810;48.376;10.944;2022-09-23T02:41:14;10.48;;;6.32;;
26036;SDS011;13810;48.376;10.944;2022-09-23T02:42:11;10.57;;;5.63;;
26036;SDS011;13810;48.376;10.944;2022-09-23T02:44:23;13.13;;;5.72;;
26036;SDS011;13810;48.376;10.944;2022-09-23T02:44:54;10.95;;;5.80;;
26036;SDS011;13810;48.376;10.944;2022-09-23T02:45:25;9.85;;;6.00;;
26036;SDS011;13810;48.376;10.944;2022-09-23T02:45:56;8.80;;;5.80;;
26036;SDS011;13810;48.376;10.944;2022-09-23T02:46:27;13.70;;;7.00;;
26036;SDS011;13810;48.376;10.944;2022-09-23T02:47:01;11.68;;;6.70;;
26036;SDS011;13810;48.376;10.944;2022-09-23T02:47:32;9.75;;;6.85;;
26036;SDS011;13810;48.376;10.944;2022-09-23T02:48:30;10.50;;;6.03;;
26036;SDS011;13810;48.376;10.944;2022-09-23T02:49:50;8.32;;;6.20;;
26036;SDS011;13810;48.376;10.944;2022-09-23T02:50:22;11.07;;;6.47;;
26036;SDS011;13810;48.376;10.944;2022-09-23T02:50:53;11.52;;;6.55;;
26036;SDS011;13810;48.376;10.944;2022-09-23T02:51:24;12.48;;;6.38;;
26036;SDS011;13810;48.376;10.944;2022-09-23T02:51:55;12.18;;;6.75;;
26036;SDS011;13810;48.376;10.944;2022-09-23T02:52:28;12.43;;;6.80;;
26036;SDS011;13810;48.376;10.944;2022-09-23T02:52:59;14.95;;;6.70;;
26036;SDS011;13810;48.376;10.944;2022-09-23T02:53:30;13.63;;;6.80;;
26036;SDS011;13810;48.376;10.944;2022-09-23T02:54:06;11.85;;;6.85;;
26036;SDS011;13810;48.376;10.944;2022-09-23T02:54:39;12.05;;;6.63;;
26036;SDS011;13810;48.376;10.944;2022-09-23T02:55:10;11.13;;;6.88;;
26036;SDS011;13810;48.376;10.944;2022-09-23T02:55:45;15.23;;;7.47;;
26036;SDS011;13810;48.376;10.944;2022-09-23T02:56:16;9.43;;;6.45;;
26036;SDS011;13810;48.376;10.944;2022-09-23T02:56:49;11.77;;;7.00;;
26036;SDS011;13810;48.376;10.944;2022-09-23T02:57:20;11.52;;;7.60;;
26036;SDS011;13810;48.376;10.944;2022-09-23T02:57:51;12.15;;;6.80;;
26036;SDS011;13810;48.376;10.944;2022-09-23T02:58:22;12.32;;;6.82;;
26036;SDS011;13810;48.376;10.944;2022-09-23T02:58:53;12.77;;;7.03;;
26036;SDS011;13810;48.376;10.944;2022-09-23T02:59:24;10.43;;;6.63;;
26036;SDS011;13810;48.376;10.944;2022-09-23T02:59:55;12.07;;;6.15;;
26036;SDS011;13810;48.376;10.944;2022-09-23T03:00:39;12.30;;;6.40;;
26036;SDS011;13810;48.376;10.944;2022-09-23T03:01:50;12.60;;;6.18;;
26036;SDS011;13810;48.376;10.944;2022-09-23T03:05:06;10.27;;;5.63;;
26036;SDS011;13810;48.376;10.944;2022-09-23T03:05:49;11.68;;;7.00;;
26036;SDS011;13810;48.376;10.944;2022-09-23T03:06:30;8.02;;;5.03;;
26036;SDS011;13810;48.376;10.944;2022-09-23T03:07:17;8.70;;;4.82;;
26036;SDS011;13810;48.376;10.944;2022-09-23T03:09:07;10.57;;;5.43;;
26036;SDS011;13810;48.376;10.944;2022-09-23T03:10:01;9.80;;;5.07;;
26036;SDS011;13810;48.376;10.944;2022-09-23T03:10:49;4.90;;;3.60;;
26036;SDS011;13810;48.376;10.944;2022-09-23T03:11:43;9.10;;;5.53;;
26036;SDS011;13810;48.376;10.944;2022-09-23T03:12:27;9.25;;;5.10;;
26036;SDS011;13810;48.376;10.944;2022-09-23T03:13:09;9.75;;;5.55;;
26036;SDS011;13810;48.376;10.944;2022-09-23T03:14:13;9.65;;;5.47;;
26036;SDS011;13810;48.376;10.944;2022-09-23T03:16:38;8.93;;;6.05;;
26036;SDS011;13810;48.376;10.944;2022-09-23T03:17:20;10.43;;;6.07;;
26036;SDS011;13810;48.376;10.944;2022-09-23T03:18:05;11.18;;;6.45;;
26036;SDS011;13810;48.376;10.944;2022-09-23T03:18:39;10.60;;;6.57;;
26036;SDS011;13810;48.376;10.944;2022-09-23T03:19:27;9.75;;;6.53;;
26036;SDS011;13810;48.376;10.944;2022-09-23T03:20:14;10.95;;;6.60;;
26036;SDS011;13810;48.376;10.944;2022-09-23T03:22:03;8.82;;;6.03;;
26036;SDS011;13810;48.376;10.944;2022-09-23T03:23:06;9.60;;;5.82;;
26036;SDS011;13810;48.376;10.944;2022-09-23T03:23:39;8.45;;;5.68;;
26036;SDS011;13810;48.376;10.944;2022-09-23T03:24:12;10.32;;;6.15;;
26036;SDS011;13810;48.376;10.944;2022-09-23T03:24:44;10.00;;;5.80;;
26036;SDS011;13810;48.376;10.944;2022-09-23T03:25:17;11.93;;;6.43;;
26036;SDS011;13810;48.376;10.944;2022-09-23T03:25:51;8.85;;;5.75;;
26036;SDS011;13810;48.376;10.944;2022-09-23T03:26:28;10.55;;;6.85;;
26036;SDS011;13810;48.376;10.944;2022-09-23T03:27:02;9.98;;;6.35;;
26036;SDS011;13810;48.376;10.944;2022-09-23T03:27:42;12.57;;;5.82;;
26036;SDS011;13810;48.376;10.944;2022-09-23T03:28:14;9.02;;;5.57;;
26036;SDS011;13810;48.376;10.944;2022-09-23T03:28:47;10.38;;;5.90;;
26036;SDS011;13810;48.376;10.944;2022-09-23T03:29:19;12.25;;;6.32;;
26036;SDS011;13810;48.376;10.944;2022-09-23T03:29:51;10.55;;;5.80;;
26036;SDS011;13810;48.376;10.944;2022-09-23T03:30:23;8.13;;;5.68;;
26036;SDS011;13810;48.376;10.944;2022-09-23T03:30:55;10.75;;;6.05;;
26036;SDS011;13810;48.376;10.944;2022-09-23T03:31:29;9.95;;;5.57;;
26036;SDS011;13810;48.376;10.944;2022-09-23T03:32:01;10.00;;;6.40;;
26036;SDS011;13810;48.376;10.944;2022-09-23T03:32:37;12.95;;;5.95;;
26036;SDS011;13810;48.376;10.944;2022-09-23T03:33:11;9.38;;;5.55;;
26036;SDS011;13810;48.376;10.944;2022-09-23T03:33:46;10.73;;;5.20;;
26036;SDS011;13810;48.376;10.944;2022-09-23T03:34:21;8.85;;;5.43;;
26036;SDS011;13810;48.376;10.944;2022-09-23T03:34:56;9.98;;;5.13;;
26036;SDS011;13810;48.376;10.944;2022-09-23T03:35:29;8.70;;;4.68;;
26036;SDS011;13810;48.376;10.944;2022-09-23T03:36:04;8.65;;;5.45;;
26036;SDS011;13810;48.376;10.944;2022-09-23T03:37:03;8.10;;;4.72;;
26036;SDS011;13810;48.376;10.944;2022-09-23T03:37:46;14.15;;;4.85;;
26036;SDS011;13810;48.376;10.944;2022-09-23T03:38:26;8.70;;;5.10;;
26036;SDS011;13810;48.376;10.944;2022-09-23T03:39:04;7.75;;;4.97;;
26036;SDS011;13810;48.376;10.944;2022-09-23T03:40:14;9.82;;;5.88;;
26036;SDS011;13810;48.376;10.944;2022-09-23T03:40:58;10.52;;;5.63;;
26036;SDS011;13810;48.376;10.944;2022-09-23T03:41:37;8.55;;;5.07;;
26036;SDS011;13810;48.376;10.944;2022-09-23T03:42:18;8.05;;;5.13;;
26036;SDS011;13810;48.376;10.944;2022-09-23T03:42:51;9.35;;;5.07;;
26036;SDS011;13810;48.376;10.944;2022-09-23T03:43:25;6.13;;;4.35;;
26036;SDS011;13810;48.376;10.944;2022-09-23T03:43:56;9.50;;;5.95;;
26036;SDS011;13810;48.376;10.944;2022-09-23T03:44:29;8.95;;;5.30;;
26036;SDS011;13810;48.376;10.944;2022-09-23T03:45:07;8.63;;;5.90;;
26036;SDS011;13810;48.376;10.944;2022-09-23T03:45:42;12.48;;;5.60;;
26036;SDS011;13810;48.376;10.944;2022-09-23T03:46:15;7.35;;;5.18;;
26036;SDS011;13810;48.376;10.944;2022-09-23T03:46:47;13.20;;;6.45;;
26036;SDS011;13810;48.376;10.944;2022-09-23T03:47:20;10.43;;;5.88;;
26036;SDS011;13810;48.376;10.944;2022-09-23T03:47:51;12.93;;;6.22;;
26036;SDS011;13810;48.376;10.944;2022-09-23T03:48:23;7.72;;;5.88;;
26036;SDS011;13810;48.376;10.944;2022-09-23T03:48:55;9.30;;;5.95;;
26036;SDS011;13810;48.376;10.944;2022-09-23T03:50:17;8.77;;;5.22;;
26036;SDS011;13810;48.376;10.944;2022-09-23T03:50:48;7.78;;;5.15;;
26036;SDS011;13810;48.376;10.944;2022-09-23T03:51:20;12.10;;;5.93;;
26036;SDS011;13810;48.376;10.944;2022-09-23T03:51:52;7.40;;;4.72;;
26036;SDS011;13810;48.376;10.944;2022-09-23T03:52:24;9.40;;;5.22;;
26036;SDS011;13810;48.376;10.944;2022-09-23T03:52:55;10.55;;;5.60;;
26036;SDS011;13810;48.376;10.944;2022-09-23T03:53:27;9.52;;;5.78;;
26036;SDS011;13810;48.376;10.944;2022-09-23T03:53:58;10.05;;;6.07;;
26036;SDS011;13810;48.376;10.944;2022-09-23T03:54:28;8.77;;;5.78;;
26036;SDS011;13810;48.376;10.944;2022-09-23T03:54:59;11.00;;;6.10;;
26036;SDS011;13810;48.376;10.944;2022-09-23T03:55:30;12.07;;;7.20;;
26036;SDS011;13810;48.376;10.944;2022-09-23T03:56:01;11.38;;;6.85;;
26036;SDS011;13810;48.376;10.944;2022-09-23T03:56:31;12.35;;;7.15;;
26036;SDS011;13810;48.376;10.944;2022-09-23T03:57:02;10.18;;;5.90;;
26036;SDS011;13810;48.376;10.944;2022-09-23T03:57:33;13.18;;;6.40;;
26036;SDS011;13810;48.376;10.944;2022-09-23T03:58:04;14.25;;;7.03;;
26036;SDS011;13810;48.376;10.944;2022-09-23T03:58:37;15.02;;;7.03;;
26036;SDS011;13810;48.376;10.944;2022-09-23T03:59:07;13.57;;;6.78;;
26036;SDS011;13810;48.376;10.944;2022-09-23T03:59:38;11.98;;;6.93;;
26036;SDS011;13810;48.376;10.944;2022-09-23T04:00:10;10.43;;;6.57;;
26036;SDS011;13810;48.376;10.944;2022-09-23T04:00:41;10.38;;;6.63;;
26036;SDS011;13810;48.376;10.944;2022-09-23T04:01:13;10.98;;;6.80;;
26036;SDS011;13810;48.376;10.944;2022-09-23T04:01:44;11.35;;;6.50;;
26036;SDS011;13810;48.376;10.944;2022-09-23T04:02:15;13.20;;;6.68;;
26036;SDS011;13810;48.376;10.944;2022-09-23T04:02:46;11.00;;;6.20;;
26036;SDS011;13810;48.376;10.944;2022-09-23T04:03:18;10.02;;;6.60;;
26036;SDS011;13810;48.376;10.944;2022-09-23T04:03:50;10.27;;;6.35;;
26036;SDS011;13810;48.376;10.944;2022-09-23T04:04:22;15.30;;;6.00;;
26036;SDS011;13810;48.376;10.944;2022-09-23T04:04:52;12.57;;;7.40;;
26036;SDS011;13810;48.376;10.944;2022-09-23T04:05:23;10.88;;;6.85;;
26036;SDS011;13810;48.376;10.944;2022-09-23T04:05:54;10.20;;;6.70;;
26036;SDS011;13810;48.376;10.944;2022-09-23T04:06:25;10.73;;;6.70;;
26036;SDS011;13810;48.376;10.944;2022-09-23T04:06:55;11.10;;;6.28;;
26036;SDS011;13810;48.376;10.944;2022-09-23T04:07:26;11.82;;;6.80;;
26036;SDS011;13810;48.376;10.944;2022-09-23T04:07:57;9.75;;;6.43;;
26036;SDS011;13810;48.376;10.944;2022-09-23T04:08:27;11.35;;;6.85;;
26036;SDS011;13810;48.376;10.944;2022-09-23T04:08:58;12.73;;;7.13;;
26036;SDS011;13810;48.376;10.944;2022-09-23T04:09:30;11.02;;;6.68;;
26036;SDS011;13810;48.376;10.944;2022-09-23T04:10:01;12.23;;;7.03;;
26036;SDS011;13810;48.376;10.944;2022-09-23T04:10:32;10.93;;;7.47;;
26036;SDS011;13810;48.376;10.944;2022-09-23T04:11:03;13.10;;;7.13;;
26036;SDS011;13810;48.376;10.944;2022-09-23T04:11:34;12.65;;;6.65;;
26036;SDS011;13810;48.376;10.944;2022-09-23T04:12:05;13.85;;;7.53;;
26036;SDS011;13810;48.376;10.944;2022-09-23T04:12:36;13.80;;;7.55;;
26036;SDS011;13810;48.376;10.944;2022-09-23T04:13:07;13.85;;;7.38;;
26036;SDS011;13810;48.376;10.944;2022-09-23T04:13:38;13.60;;;6.78;;
26036;SDS011;13810;48.376;10.944;2022-09-23T04:14:09;13.95;;;7.57;;
26036;SDS011;13810;48.376;10.944;2022-09-23T04:14:41;13.43;;;7.15;;
26036;SDS011;13810;48.376;10.944;2022-09-23T04:15:12;12.25;;;7.25;;
26036;SDS011;13810;48.376;10.944;2022-09-23T04:15:43;13.55;;;8.30;;
26036;SDS011;13810;48.376;10.944;2022-09-23T04:16:13;15.18;;;7.32;;
26036;SDS011;13810;48.376;10.944;2022-09-23T04:16:45;12.95;;;7.50;;
26036;SDS011;13810;48.376;10.944;2022-09-23T04:17:16;13.07;;;8.02;;
26036;SDS011;13810;48.376;10.944;2022-09-23T04:17:47;10.10;;;6.65;;
26036;SDS011;13810;48.376;10.944;2022-09-23T04:18:18;12.27;;;6.85;;
26036;SDS011;13810;48.376;10.944;2022-09-23T04:18:48;12.43;;;6.68;;
26036;SDS011;13810;48.376;10.944;2022-09-23T04:19:19;10.77;;;6.55;;
26036;SDS011;13810;48.376;10.944;2022-09-23T04:19:50;12.55;;;6.82;;